CBC9 weather

Burgeo (Calder Health Care Corp) Heliport
Burgeo, Newfoundland and Labrador, Canada

Public forecast

Using degrees Celsius for public forecast. Weather courtesy of forecast.io.

Closest aviation weather report (METAR) to Burgeo (Calder Health Care Corp) Heliport

Closest report is Stephenville Airport, 67.1 nm (124.3 km) NNW. Retrieved 2020/03/30 18:00 UTC (54 minutes ago):

CYJT 301800Z 05013G18KT 15SM BKN036 03/M05 A3016 RMK SC6 SLP216

Closest aviation forecast (TAF) to Burgeo (Calder Health Care Corp) Heliport

Closest forecast is Stephenville Airport, 67.1 nm (124.3 km) NNW. Retrieved 2020/03/30 18:42 UTC (12 minutes ago):

TAF TAF CYJT 301738Z 3018/3118 05015KT P6SM BKN030 FM310300 06015KT P6SM -SN OVC030 TEMPO 3103/3109 5SM -SN OVC020 FM310900 05015KT P6SM OVC020 PROB30 3109/3112 P6SM -FZDZ FM311200 06015G25KT P6SM OVC025 RMK NXT FCST BY 310000Z